createdAt,value
2022-10-01T00:01:19.312Z,100.00
2022-10-01T00:02:54.860Z,100.00
2022-10-01T00:04:28.645Z,100.00
2022-10-01T00:06:15.560Z,100.00
2022-10-01T00:07:49.351Z,100.00
2022-10-01T00:09:23.264Z,100.00
2022-10-01T00:10:57.173Z,100.00
2022-10-01T00:12:30.819Z,100.00
2022-10-01T00:14:04.258Z,100.00
2022-10-01T00:15:42.070Z,99.99
2022-10-01T00:17:16.760Z,100.00
2022-10-01T00:18:51.025Z,99.97
2022-10-01T00:20:24.587Z,100.00
2022-10-01T00:21:58.284Z,100.00
2022-10-01T00:23:31.506Z,99.82
2022-10-01T00:25:06.530Z,100.00
2022-10-01T00:26:40.126Z,99.57
2022-10-01T00:28:14.518Z,99.58
2022-10-01T00:29:48.065Z,99.85
2022-10-01T00:31:21.829Z,99.65
2022-10-01T00:32:56.120Z,99.75
2022-10-01T00:34:29.489Z,99.82
2022-10-01T00:36:07.753Z,99.61
2022-10-01T00:37:43.162Z,99.83
2022-10-01T00:39:17.088Z,99.47
2022-10-01T00:40:51.728Z,99.19
2022-10-01T00:42:30.493Z,99.36
2022-10-01T00:44:29.033Z,99.34
2022-10-01T00:46:11.724Z,99.68
2022-10-01T00:47:59.580Z,99.83
2022-10-01T00:49:36.113Z,99.44
2022-10-01T00:51:13.333Z,99.50
2022-10-01T00:52:52.581Z,100.00
2022-10-01T00:54:32.531Z,99.55
2022-10-01T00:56:07.584Z,100.00
2022-10-01T00:57:43.096Z,99.93
2022-10-01T00:59:17.259Z,99.69
2022-10-01T01:00:51.984Z,99.53
2022-10-01T01:02:25.851Z,99.43
2022-10-01T01:03:59.920Z,99.77
2022-10-01T01:05:33.693Z,99.19
2022-10-01T01:07:09.049Z,100.00
2022-10-01T01:08:43.636Z,99.21
2022-10-01T01:10:23.229Z,99.43
2022-10-01T01:12:06.570Z,99.12
2022-10-01T01:13:42.730Z,98.85
2022-10-01T01:15:25.770Z,98.67
2022-10-01T01:17:08.819Z,98.66
2022-10-01T01:18:48.381Z,98.55
2022-10-01T01:20:44.607Z,98.45
2022-10-01T01:22:22.521Z,98.28
2022-10-01T01:24:24.721Z,98.46
2022-10-01T01:26:19.461Z,98.55
2022-10-01T01:28:17.340Z,98.37
2022-10-01T01:30:04.118Z,98.28
2022-10-01T01:31:47.165Z,98.40
2022-10-01T01:33:25.120Z,98.22
2022-10-01T01:35:04.762Z,98.36
2022-10-01T01:36:41.060Z,98.26
2022-10-01T01:38:20.191Z,98.10
2022-10-01T01:39:56.813Z,98.15
2022-10-01T01:41:35.957Z,97.94
2022-10-01T01:43:18.021Z,97.87
2022-10-01T01:44:54.849Z,98.03
2022-10-01T01:46:33.599Z,97.97
2022-10-01T01:48:10.296Z,97.35
2022-10-01T01:49:44.502Z,97.75
2022-10-01T01:51:26.475Z,97.56
2022-10-01T01:53:00.192Z,97.63
2022-10-01T01:54:37.042Z,97.73
2022-10-01T01:56:10.225Z,97.06
2022-10-01T01:57:45.252Z,97.14
2022-10-01T01:59:20.126Z,96.96
2022-10-01T02:00:53.306Z,96.65
2022-10-01T02:02:36.273Z,96.82
2022-10-01T02:04:33.813Z,96.73
2022-10-01T02:06:28.644Z,96.54
2022-10-01T02:08:19.960Z,95.94
2022-10-01T02:10:29.821Z,95.76
2022-10-01T02:12:20.237Z,95.76
2022-10-01T02:14:29.085Z,95.19
2022-10-01T02:16:23.036Z,95.15
2022-10-01T02:18:23.294Z,95.01
2022-10-01T02:20:00.669Z,95.07
2022-10-01T02:21:37.681Z,94.76
2022-10-01T02:23:16.564Z,94.76
2022-10-01T02:24:57.564Z,94.71
2022-10-01T02:26:32.780Z,94.39
2022-10-01T02:28:11.412Z,94.62
2022-10-01T02:29:47.016Z,94.76
2022-10-01T02:31:23.180Z,94.47
2022-10-01T02:32:59.661Z,94.66
2022-10-01T02:34:34.045Z,94.41
2022-10-01T02:36:10.508Z,94.49
2022-10-01T02:37:46.398Z,94.32
2022-10-01T02:39:22.403Z,94.21
2022-10-01T02:41:01.468Z,94.37
2022-10-01T02:42:36.953Z,94.05
2022-10-01T02:44:23.276Z,93.91
2022-10-01T02:46:00.863Z,94.14
2022-10-01T02:47:37.411Z,93.76
2022-10-01T02:49:13.657Z,94.26
2022-10-01T02:50:54.138Z,93.89
2022-10-01T02:52:40.335Z,94.06
2022-10-01T02:54:27.355Z,93.84
2022-10-01T02:56:03.756Z,93.96
2022-10-01T02:57:38.208Z,93.72
2022-10-01T02:59:11.452Z,93.89
2022-10-01T03:00:44.892Z,93.98
2022-10-01T03:02:20.243Z,94.14
2022-10-01T03:03:54.468Z,93.75
2022-10-01T03:05:27.871Z,93.82
2022-10-01T03:07:04.284Z,93.71
2022-10-01T03:08:40.892Z,93.88
2022-10-01T03:10:16.622Z,93.88
2022-10-01T03:11:50.399Z,93.46
2022-10-01T03:13:23.801Z,93.50
2022-10-01T03:15:00.548Z,93.72
2022-10-01T03:16:34.102Z,93.42
2022-10-01T03:18:07.627Z,93.32
2022-10-01T03:19:41.485Z,93.33
2022-10-01T03:21:15.426Z,93.58
2022-10-01T03:22:49.011Z,93.12
2022-10-01T03:24:23.343Z,93.50
2022-10-01T03:25:56.488Z,93.26
2022-10-01T03:27:29.700Z,93.22
2022-10-01T03:29:03.667Z,93.06
2022-10-01T03:30:37.271Z,93.23
2022-10-01T03:32:11.134Z,92.84
2022-10-01T03:33:45.032Z,92.35
2022-10-01T03:35:18.437Z,92.29
2022-10-01T03:36:54.982Z,92.33
2022-10-01T03:38:28.215Z,92.40
2022-10-01T03:40:01.895Z,92.45
2022-10-01T03:41:35.546Z,92.28
2022-10-01T03:43:09.359Z,92.25
2022-10-01T03:44:42.968Z,92.09
2022-10-01T03:46:16.567Z,92.27
2022-10-01T03:47:53.917Z,92.08
2022-10-01T03:49:27.756Z,91.79
2022-10-01T03:51:01.287Z,91.56
2022-10-01T03:52:34.727Z,91.53
2022-10-01T03:54:09.357Z,91.81
2022-10-01T03:55:42.816Z,91.54
2022-10-01T03:57:16.443Z,91.48
2022-10-01T03:58:50.370Z,91.81
2022-10-01T04:00:24.416Z,91.60
2022-10-01T04:01:58.378Z,91.56
2022-10-01T04:03:32.037Z,91.47
2022-10-01T04:05:05.935Z,91.37
2022-10-01T04:06:39.773Z,91.16
2022-10-01T04:08:18.766Z,91.33
2022-10-01T04:09:54.565Z,91.20
2022-10-01T04:11:28.539Z,91.00
2022-10-01T04:13:02.437Z,90.94
2022-10-01T04:14:35.812Z,91.07
2022-10-01T04:16:09.059Z,90.70
2022-10-01T04:17:45.849Z,90.70
2022-10-01T04:19:20.665Z,90.22
2022-10-01T04:20:54.246Z,90.03
2022-10-01T04:22:27.696Z,90.03
2022-10-01T04:24:03.386Z,90.24
2022-10-01T04:25:37.397Z,90.05
2022-10-01T04:27:10.977Z,90.05
2022-10-01T04:28:46.706Z,89.94
2022-10-01T04:30:20.086Z,89.64
2022-10-01T04:31:53.972Z,89.79
2022-10-01T04:33:30.714Z,89.31
2022-10-01T04:35:05.121Z,89.27
2022-10-01T04:36:41.267Z,89.12
2022-10-01T04:38:17.569Z,89.43
2022-10-01T04:39:51.353Z,88.99
2022-10-01T04:41:26.008Z,89.00
2022-10-01T04:42:59.550Z,88.35
2022-10-01T04:44:33.436Z,88.25
2022-10-01T04:46:07.695Z,88.18
2022-10-01T04:47:48.745Z,87.48
2022-10-01T04:49:22.043Z,87.27
2022-10-01T04:50:55.557Z,86.97
2022-10-01T04:52:29.563Z,86.72
2022-10-01T04:54:03.182Z,86.65
2022-10-01T04:55:36.318Z,85.89
2022-10-01T04:57:09.842Z,85.31
2022-10-01T04:58:43.343Z,85.26
2022-10-01T05:00:22.175Z,84.79
2022-10-01T05:01:55.543Z,84.34
2022-10-01T05:03:28.935Z,83.11
2022-10-01T05:05:04.595Z,81.95
2022-10-01T05:06:38.219Z,81.34
2022-10-01T05:08:11.508Z,80.99
2022-10-01T05:09:45.039Z,79.95
2022-10-01T05:11:19.597Z,80.34
2022-10-01T05:12:53.075Z,80.11
2022-10-01T05:14:27.198Z,79.95
2022-10-01T05:16:02.625Z,79.87
2022-10-01T05:17:37.310Z,79.69
2022-10-01T05:19:10.293Z,79.68
2022-10-01T05:20:44.363Z,78.94
2022-10-01T05:22:17.567Z,78.96
2022-10-01T05:23:50.858Z,78.31
2022-10-01T05:25:24.425Z,77.71
2022-10-01T05:26:58.213Z,77.66
2022-10-01T05:28:32.285Z,78.10
2022-10-01T05:30:06.295Z,78.38
2022-10-01T05:31:44.718Z,78.22
2022-10-01T05:33:17.784Z,77.85
2022-10-01T05:34:53.579Z,78.03
2022-10-01T05:36:39.936Z,77.12
2022-10-01T05:38:13.331Z,76.38
2022-10-01T05:39:46.164Z,75.56
2022-10-01T05:41:20.612Z,74.89
2022-10-01T05:42:58.866Z,74.31
2022-10-01T05:44:46.479Z,74.02
2022-10-01T05:46:21.093Z,73.30
2022-10-01T05:48:06.102Z,73.03
2022-10-01T05:49:42.805Z,72.37
2022-10-01T05:51:16.758Z,72.73
2022-10-01T05:52:56.617Z,71.24
2022-10-01T05:54:30.127Z,70.83
2022-10-01T05:56:03.521Z,70.11
2022-10-01T05:57:36.948Z,69.87
2022-10-01T05:59:14.355Z,69.53
2022-10-01T06:00:48.643Z,69.51
2022-10-01T06:02:21.923Z,68.26
2022-10-01T06:03:55.722Z,68.70
2022-10-01T06:05:37.008Z,68.64
2022-10-01T06:07:13.704Z,68.75
2022-10-01T06:08:49.971Z,68.91
2022-10-01T06:10:24.196Z,68.20
2022-10-01T06:11:57.972Z,67.63
2022-10-01T06:13:32.860Z,67.59
2022-10-01T06:15:06.425Z,67.98
2022-10-01T06:16:39.958Z,68.23
2022-10-01T06:18:15.312Z,68.10
2022-10-01T06:19:52.134Z,68.25
2022-10-01T06:21:26.433Z,67.44
2022-10-01T06:22:59.756Z,66.77
2022-10-01T06:24:33.571Z,66.63
2022-10-01T06:26:07.467Z,66.37
2022-10-01T06:27:40.991Z,65.94
2022-10-01T06:29:14.430Z,66.49
2022-10-01T06:30:47.982Z,65.08
2022-10-01T06:32:21.590Z,63.99
2022-10-01T06:33:55.152Z,64.02
2022-10-01T06:35:28.123Z,63.28
2022-10-01T06:37:01.352Z,63.89
2022-10-01T06:38:34.724Z,64.19
2022-10-01T06:40:08.446Z,63.86
2022-10-01T06:41:44.087Z,61.93
2022-10-01T06:43:22.546Z,61.23
2022-10-01T06:44:56.237Z,60.24
2022-10-01T06:46:29.257Z,60.15
2022-10-01T06:48:05.596Z,59.45
2022-10-01T06:49:38.995Z,59.30
2022-10-01T06:51:12.607Z,59.32
2022-10-01T06:52:51.720Z,58.97
2022-10-01T06:54:27.679Z,58.48
2022-10-01T06:56:07.394Z,58.22
2022-10-01T06:57:40.819Z,58.05
2022-10-01T06:59:13.954Z,58.04
2022-10-01T07:00:48.828Z,58.14
2022-10-01T07:02:31.101Z,58.88
2022-10-01T07:04:04.636Z,58.86
2022-10-01T07:05:39.428Z,58.48
2022-10-01T07:07:12.664Z,58.80
2022-10-01T07:08:50.668Z,58.51
2022-10-01T07:10:24.087Z,58.90
2022-10-01T07:11:57.577Z,59.54
2022-10-01T07:13:31.083Z,59.81
2022-10-01T07:15:06.200Z,59.98
2022-10-01T07:16:40.022Z,60.09
2022-10-01T07:18:13.878Z,59.38
2022-10-01T07:19:46.983Z,59.09
2022-10-01T07:21:20.430Z,59.08
2022-10-01T07:23:01.110Z,58.77
2022-10-01T07:24:35.769Z,58.52
2022-10-01T07:26:09.550Z,58.27
2022-10-01T07:27:42.834Z,58.19
2022-10-01T07:29:15.987Z,57.59
2022-10-01T07:31:02.873Z,57.69
2022-10-01T07:32:36.868Z,57.85
2022-10-01T07:34:10.025Z,59.11
2022-10-01T07:35:43.514Z,58.57
2022-10-01T07:37:16.992Z,58.34
2022-10-01T07:38:51.474Z,57.94
2022-10-01T07:40:25.187Z,57.15
2022-10-01T07:41:59.478Z,57.06
2022-10-01T07:43:34.996Z,57.67
2022-10-01T07:45:09.382Z,56.22
2022-10-01T07:46:42.756Z,55.91
2022-10-01T07:48:16.707Z,56.11
2022-10-01T07:49:50.131Z,55.54
2022-10-01T07:51:24.884Z,54.88
2022-10-01T07:52:59.595Z,54.78
2022-10-01T07:54:32.994Z,55.52
2022-10-01T07:56:06.458Z,55.66
2022-10-01T07:57:40.070Z,54.79
2022-10-01T07:59:13.506Z,54.59
2022-10-01T08:00:46.957Z,54.48
2022-10-01T08:02:20.221Z,54.86
2022-10-01T08:03:53.758Z,54.50
2022-10-01T08:05:30.402Z,54.99
2022-10-01T08:07:08.786Z,54.62
2022-10-01T08:08:42.650Z,54.59
2022-10-01T08:10:18.071Z,55.08
2022-10-01T08:11:51.520Z,53.93
2022-10-01T08:13:30.256Z,53.54
2022-10-01T08:15:03.856Z,53.43
2022-10-01T08:16:39.904Z,53.84
2022-10-01T08:18:14.041Z,54.08
2022-10-01T08:19:47.577Z,54.06
2022-10-01T08:21:21.611Z,54.25
2022-10-01T08:22:54.830Z,54.65
2022-10-01T08:24:28.273Z,54.38
2022-10-01T08:26:07.985Z,54.49
2022-10-01T08:27:41.382Z,54.13
2022-10-01T08:29:17.053Z,53.60
2022-10-01T08:30:50.468Z,53.79
2022-10-01T08:32:25.362Z,53.66
2022-10-01T08:33:58.452Z,54.21
2022-10-01T08:35:32.333Z,54.50
2022-10-01T08:37:05.766Z,53.83
2022-10-01T08:38:40.641Z,52.71
2022-10-01T08:40:15.232Z,53.25
2022-10-01T08:42:06.111Z,52.17
2022-10-01T08:43:41.541Z,51.64
2022-10-01T08:45:20.760Z,51.15
2022-10-01T08:47:01.155Z,49.55
2022-10-01T08:48:57.110Z,50.13
2022-10-01T08:50:39.265Z,50.54
2022-10-01T08:52:31.160Z,48.93
2022-10-01T08:54:29.408Z,47.87
2022-10-01T08:56:04.595Z,48.23
2022-10-01T08:57:48.364Z,47.83
2022-10-01T08:59:47.502Z,46.97
2022-10-01T09:01:21.752Z,47.96
2022-10-01T09:02:58.458Z,48.99
2022-10-01T09:04:33.692Z,48.49
2022-10-01T09:06:26.710Z,48.76
2022-10-01T09:08:44.771Z,49.44
2022-10-01T09:10:25.314Z,48.93
2022-10-01T09:12:15.140Z,49.26
2022-10-01T09:14:04.687Z,49.81
2022-10-01T09:16:15.335Z,49.54
2022-10-01T09:18:11.595Z,49.88
2022-10-01T09:20:05.377Z,50.40
2022-10-01T09:21:50.222Z,50.22
2022-10-01T09:23:32.654Z,50.16
2022-10-01T09:25:14.921Z,49.81
2022-10-01T09:26:49.257Z,50.29
2022-10-01T09:28:34.212Z,50.50
2022-10-01T09:30:25.653Z,50.67
2022-10-01T09:32:03.561Z,50.59
2022-10-01T09:33:41.918Z,49.86
2022-10-01T09:35:38.260Z,50.46
2022-10-01T09:37:37.008Z,50.86
2022-10-01T09:39:13.869Z,49.99
2022-10-01T09:41:01.488Z,49.94
2022-10-01T09:42:37.931Z,49.90
2022-10-01T09:44:19.014Z,49.97
2022-10-01T09:45:53.460Z,49.87
2022-10-01T09:47:27.303Z,50.01
2022-10-01T09:49:21.772Z,50.31
2022-10-01T09:51:00.431Z,50.57
2022-10-01T09:52:39.694Z,50.25
2022-10-01T09:54:36.514Z,51.12
2022-10-01T09:56:17.008Z,51.07
2022-10-01T09:58:03.962Z,50.67
2022-10-01T09:59:56.567Z,51.53
2022-10-01T10:01:46.510Z,50.95
2022-10-01T10:03:33.095Z,50.69
2022-10-01T10:05:17.029Z,50.19
2022-10-01T10:07:02.049Z,50.06
2022-10-01T10:08:37.700Z,49.69
2022-10-01T10:10:35.949Z,50.07
2022-10-01T10:12:27.097Z,49.90
2022-10-01T10:14:03.782Z,49.76
2022-10-01T10:15:43.476Z,49.71
2022-10-01T10:17:17.336Z,49.15
2022-10-01T10:18:54.467Z,49.91
2022-10-01T10:20:39.972Z,50.04
2022-10-01T10:22:28.185Z,49.64
2022-10-01T10:24:04.120Z,49.46
2022-10-01T10:25:37.484Z,48.67
2022-10-01T10:27:27.303Z,48.71
2022-10-01T10:29:03.187Z,48.38
2022-10-01T10:30:37.593Z,48.55
2022-10-01T10:32:27.162Z,47.83
2022-10-01T10:34:17.409Z,47.87
2022-10-01T10:36:01.008Z,47.32
2022-10-01T10:37:38.751Z,46.14
2022-10-01T10:39:26.233Z,45.85
2022-10-01T10:40:59.592Z,46.04
2022-10-01T10:42:33.714Z,45.43
2022-10-01T10:44:08.844Z,46.16
2022-10-01T10:45:47.332Z,45.94
2022-10-01T10:47:22.533Z,45.95
2022-10-01T10:49:30.613Z,45.73
2022-10-01T10:51:06.498Z,46.21
2022-10-01T10:52:43.761Z,46.93
2022-10-01T10:54:42.090Z,46.81
2022-10-01T10:56:24.147Z,46.63
2022-10-01T10:58:19.424Z,46.91
2022-10-01T11:00:01.261Z,47.35
2022-10-01T11:01:42.794Z,47.75
2022-10-01T11:03:20.362Z,47.19
2022-10-01T11:04:55.156Z,47.50
2022-10-01T11:06:28.468Z,47.85
2022-10-01T11:08:05.610Z,47.76
2022-10-01T11:10:06.608Z,48.14
2022-10-01T11:11:42.698Z,47.63
2022-10-01T11:13:39.758Z,47.58
2022-10-01T11:15:49.542Z,47.70
2022-10-01T11:17:31.600Z,47.77
2022-10-01T11:19:08.238Z,47.58
2022-10-01T11:21:19.564Z,47.32
2022-10-01T11:23:04.619Z,47.45
2022-10-01T11:25:06.648Z,46.80
2022-10-01T11:27:01.950Z,47.48
2022-10-01T11:29:01.845Z,47.58
2022-10-01T11:31:07.511Z,46.88
2022-10-01T11:32:54.720Z,47.45
2022-10-01T11:34:40.710Z,47.48
2022-10-01T11:36:27.450Z,47.59
2022-10-01T11:38:22.511Z,48.04
2022-10-01T11:40:00.011Z,47.75
2022-10-01T11:41:39.747Z,46.76
2022-10-01T11:43:26.984Z,47.23
2022-10-01T11:45:21.791Z,46.13
2022-10-01T11:47:11.924Z,46.40
2022-10-01T11:49:11.595Z,46.85
2022-10-01T11:50:49.348Z,46.26
2022-10-01T11:52:53.290Z,46.94
2022-10-01T11:54:27.719Z,46.71
2022-10-01T11:56:29.692Z,47.12
2022-10-01T11:58:49.697Z,46.56
2022-10-01T12:00:27.179Z,46.63
2022-10-01T12:02:38.222Z,46.49
2022-10-01T12:04:19.306Z,46.53
2022-10-01T12:05:56.412Z,46.08
2022-10-01T12:07:43.006Z,46.23
2022-10-01T12:09:32.917Z,45.97
2022-10-01T12:11:22.081Z,45.65
2022-10-01T12:13:21.206Z,46.14
2022-10-01T12:15:21.118Z,46.32
2022-10-01T12:16:59.633Z,46.82
2022-10-01T12:18:33.331Z,46.20
2022-10-01T12:20:22.110Z,46.21
2022-10-01T12:22:13.458Z,46.15
2022-10-01T12:23:54.022Z,46.17
2022-10-01T12:25:38.372Z,45.79
2022-10-01T12:27:35.850Z,46.12
2022-10-01T12:29:36.638Z,45.98
2022-10-01T12:31:37.064Z,45.97
2022-10-01T12:33:34.804Z,46.06
2022-10-01T12:35:17.011Z,45.99
2022-10-01T12:37:10.726Z,45.92
2022-10-01T12:39:16.341Z,46.14
2022-10-01T12:41:23.344Z,46.43
2022-10-01T12:43:30.370Z,46.29
2022-10-01T12:45:10.798Z,46.34
2022-10-01T12:47:08.443Z,46.34
2022-10-01T12:48:54.402Z,46.74
2022-10-01T12:50:37.369Z,46.74
2022-10-01T12:52:38.278Z,46.87
2022-10-01T12:54:31.595Z,46.89
2022-10-01T12:56:30.507Z,47.23
2022-10-01T12:58:12.918Z,47.33
2022-10-01T13:00:09.662Z,47.55
2022-10-01T13:01:54.651Z,48.23
2022-10-01T13:03:53.969Z,48.60
2022-10-01T13:05:51.718Z,48.13
2022-10-01T13:07:40.570Z,48.63
2022-10-01T13:09:29.387Z,48.59
2022-10-01T13:11:11.860Z,48.34
2022-10-01T13:13:08.065Z,48.92
2022-10-01T13:14:44.750Z,48.98
2022-10-01T13:16:28.940Z,48.68
2022-10-01T13:18:25.523Z,48.75
2022-10-01T13:20:12.169Z,49.13
2022-10-01T13:22:09.369Z,49.89
2022-10-01T13:23:54.999Z,50.12
2022-10-01T13:25:40.120Z,49.74
2022-10-01T13:27:49.814Z,50.16
2022-10-01T13:29:22.869Z,50.17
2022-10-01T13:31:12.453Z,50.22
2022-10-01T13:33:05.660Z,50.26
2022-10-01T13:34:42.175Z,50.50
2022-10-01T13:36:18.882Z,50.86
2022-10-01T13:37:52.563Z,51.39
2022-10-01T13:39:28.934Z,51.37
2022-10-01T13:41:27.535Z,50.92
2022-10-01T13:43:19.117Z,51.60
2022-10-01T13:44:53.923Z,51.64
2022-10-01T13:46:33.508Z,52.00
2022-10-01T13:48:18.200Z,51.77
2022-10-01T13:50:21.031Z,52.02
2022-10-01T13:51:55.391Z,51.80
2022-10-01T13:53:30.466Z,52.29
2022-10-01T13:55:04.034Z,53.09
2022-10-01T13:56:38.792Z,52.13
2022-10-01T13:58:31.029Z,52.44
2022-10-01T14:00:12.973Z,52.70
2022-10-01T14:01:46.500Z,53.15
2022-10-01T14:03:40.378Z,53.10
2022-10-01T14:05:49.888Z,54.06
2022-10-01T14:07:28.741Z,54.36
2022-10-01T14:09:29.501Z,53.83
2022-10-01T14:11:28.596Z,54.21
2022-10-01T14:13:22.555Z,54.69
2022-10-01T14:15:20.493Z,54.90
2022-10-01T14:16:56.449Z,54.43
2022-10-01T14:18:43.205Z,54.62
2022-10-01T14:20:27.414Z,55.09
2022-10-01T14:22:35.509Z,55.38
2022-10-01T14:24:33.067Z,56.19
2022-10-01T14:26:35.534Z,56.56
2022-10-01T14:28:46.000Z,56.52
2022-10-01T14:30:25.587Z,56.96
2022-10-01T14:32:29.598Z,58.02
2022-10-01T14:34:13.703Z,58.15
2022-10-01T14:36:07.107Z,58.54
2022-10-01T14:37:41.258Z,58.95
2022-10-01T14:39:28.650Z,59.41
2022-10-01T14:41:02.526Z,60.24
2022-10-01T14:42:35.988Z,60.13
2022-10-01T14:44:39.641Z,60.39
2022-10-01T14:46:21.853Z,61.02
2022-10-01T14:48:03.115Z,61.37
2022-10-01T14:49:36.491Z,61.71
2022-10-01T14:51:27.798Z,61.68
2022-10-01T14:53:01.793Z,61.97
2022-10-01T14:54:48.320Z,62.03
2022-10-01T14:56:23.261Z,62.36
2022-10-01T14:57:59.663Z,63.12
2022-10-01T14:59:40.185Z,63.00
2022-10-01T15:01:22.139Z,63.28
2022-10-01T15:03:16.230Z,63.90
2022-10-01T15:04:52.702Z,63.97
2022-10-01T15:06:32.925Z,63.73
2022-10-01T15:08:36.794Z,63.96
2022-10-01T15:10:09.971Z,63.72
2022-10-01T15:11:44.886Z,63.75
2022-10-01T15:13:32.701Z,64.08
2022-10-01T15:15:17.810Z,63.82
2022-10-01T15:16:52.576Z,63.70
2022-10-01T15:18:27.362Z,63.79
2022-10-01T15:20:00.915Z,64.27
2022-10-01T15:21:47.144Z,64.22
2022-10-01T15:23:22.423Z,63.96
2022-10-01T15:25:01.661Z,64.22
2022-10-01T15:26:36.024Z,64.26
2022-10-01T15:28:28.963Z,64.33
2022-10-01T15:30:02.542Z,64.62
2022-10-01T15:31:37.656Z,64.59
2022-10-01T15:33:28.025Z,65.03
2022-10-01T15:35:03.759Z,64.63
2022-10-01T15:36:38.265Z,65.01
2022-10-01T15:38:11.753Z,64.82
2022-10-01T15:39:54.451Z,64.96
2022-10-01T15:41:33.001Z,64.94
2022-10-01T15:43:09.905Z,64.72
2022-10-01T15:44:50.405Z,64.85
2022-10-01T15:46:24.227Z,65.31
2022-10-01T15:47:58.492Z,65.08
2022-10-01T15:49:32.178Z,65.56
2022-10-01T15:51:19.828Z,65.20
2022-10-01T15:52:58.138Z,65.33
2022-10-01T15:54:32.188Z,65.66
2022-10-01T15:56:13.345Z,65.68
2022-10-01T15:57:47.223Z,65.84
2022-10-01T15:59:21.891Z,65.80
2022-10-01T16:01:10.004Z,65.68
2022-10-01T16:02:45.663Z,65.86
2022-10-01T16:04:21.890Z,65.90
2022-10-01T16:05:56.588Z,66.57
2022-10-01T16:07:34.591Z,66.99
2022-10-01T16:09:16.950Z,66.83
2022-10-01T16:11:13.243Z,67.15
2022-10-01T16:12:46.743Z,67.91
2022-10-01T16:14:44.917Z,67.93
2022-10-01T16:16:22.689Z,68.58
2022-10-01T16:17:56.932Z,68.48
2022-10-01T16:19:31.594Z,68.74
2022-10-01T16:21:07.016Z,69.41
2022-10-01T16:22:40.675Z,69.21
2022-10-01T16:24:29.771Z,69.49
2022-10-01T16:26:27.753Z,69.26
2022-10-01T16:28:04.712Z,69.80
2022-10-01T16:29:38.583Z,69.75
2022-10-01T16:31:12.143Z,70.12
2022-10-01T16:32:45.792Z,70.19
2022-10-01T16:34:20.816Z,70.61
2022-10-01T16:36:09.569Z,70.46
2022-10-01T16:37:43.440Z,70.87
2022-10-01T16:39:16.626Z,71.22
2022-10-01T16:40:49.849Z,71.17
2022-10-01T16:42:24.646Z,71.01
2022-10-01T16:43:58.537Z,71.75
2022-10-01T16:45:38.320Z,71.98
2022-10-01T16:47:12.802Z,72.38
2022-10-01T16:48:51.879Z,72.43
2022-10-01T16:50:26.145Z,72.21
2022-10-01T16:51:59.704Z,72.63
2022-10-01T16:53:32.696Z,72.79
2022-10-01T16:55:12.345Z,73.34
2022-10-01T16:56:45.926Z,72.75
2022-10-01T16:58:20.276Z,72.81
2022-10-01T16:59:53.325Z,72.80
2022-10-01T17:01:27.289Z,72.97
2022-10-01T17:03:00.895Z,73.21
2022-10-01T17:04:34.539Z,73.55
2022-10-01T17:06:07.929Z,73.55
2022-10-01T17:07:41.189Z,73.81
2022-10-01T17:09:14.463Z,74.05
2022-10-01T17:11:00.816Z,73.72
2022-10-01T17:12:33.838Z,73.86
2022-10-01T17:14:09.708Z,73.73
2022-10-01T17:15:44.489Z,73.57
2022-10-01T17:17:19.536Z,73.85
2022-10-01T17:18:56.270Z,73.77
2022-10-01T17:20:30.628Z,73.83
2022-10-01T17:22:04.155Z,73.50
2022-10-01T17:23:38.564Z,73.44
2022-10-01T17:25:16.889Z,73.54
2022-10-01T17:26:50.450Z,74.12
2022-10-01T17:28:24.793Z,73.71
2022-10-01T17:29:57.936Z,74.02
2022-10-01T17:31:30.813Z,74.00
2022-10-01T17:33:04.535Z,74.05
2022-10-01T17:34:38.267Z,73.84
2022-10-01T17:36:12.032Z,73.42
2022-10-01T17:37:45.673Z,73.15
2022-10-01T17:39:19.080Z,73.16
2022-10-01T17:40:56.319Z,73.45
2022-10-01T17:42:33.085Z,73.41
2022-10-01T17:44:06.287Z,73.47
2022-10-01T17:45:39.851Z,73.60
2022-10-01T17:47:13.013Z,73.52
2022-10-01T17:48:49.593Z,73.34
2022-10-01T17:50:24.260Z,73.09
2022-10-01T17:51:57.801Z,73.32
2022-10-01T17:53:39.660Z,73.49
2022-10-01T17:55:16.129Z,73.83
2022-10-01T17:56:53.594Z,73.49
2022-10-01T17:58:27.471Z,73.84
2022-10-01T18:00:01.507Z,73.77
2022-10-01T18:01:45.624Z,73.71
2022-10-01T18:03:20.046Z,73.78
2022-10-01T18:04:56.793Z,73.41
2022-10-01T18:06:30.794Z,73.35
2022-10-01T18:08:04.291Z,73.54
2022-10-01T18:09:37.903Z,73.20
2022-10-01T18:11:13.273Z,73.08
2022-10-01T18:12:46.623Z,72.99
2022-10-01T18:14:19.908Z,73.12
2022-10-01T18:16:00.990Z,72.80
2022-10-01T18:17:36.609Z,73.22
2022-10-01T18:21:09.245Z,72.66
2022-10-01T18:22:42.716Z,72.18
2022-10-01T18:24:17.243Z,72.21
2022-10-01T18:25:50.612Z,72.31
2022-10-01T18:27:24.592Z,72.51
2022-10-01T18:28:58.475Z,72.44
2022-10-01T18:30:32.362Z,73.38
2022-10-01T18:32:27.780Z,73.37
2022-10-01T18:34:06.715Z,73.09
2022-10-01T18:35:44.366Z,73.25
2022-10-01T18:37:47.245Z,72.97
2022-10-01T18:39:49.813Z,72.93
2022-10-01T18:41:34.049Z,73.30
2022-10-01T18:43:18.378Z,73.03
2022-10-01T18:44:56.203Z,72.70
2022-10-01T18:46:50.861Z,72.36
2022-10-01T18:48:32.828Z,72.03
2022-10-01T18:50:15.056Z,71.18
2022-10-01T18:52:06.623Z,71.45
2022-10-01T18:54:06.629Z,70.65
2022-10-01T18:55:49.395Z,70.49
2022-10-01T18:57:43.545Z,69.48
2022-10-01T18:59:19.253Z,69.23
2022-10-01T19:01:22.127Z,69.15
2022-10-01T19:03:14.708Z,69.33
2022-10-01T19:04:48.308Z,69.53
2022-10-01T19:06:44.557Z,69.02
2022-10-01T19:08:49.435Z,68.97
2022-10-01T19:10:38.224Z,69.83
2022-10-01T19:12:31.376Z,70.21
2022-10-01T19:14:25.710Z,71.06
2022-10-01T19:16:10.627Z,70.37
2022-10-01T19:17:50.454Z,71.18
2022-10-01T19:19:42.691Z,72.04
2022-10-01T19:21:35.411Z,73.30
2022-10-01T19:23:36.600Z,74.14
2022-10-01T19:25:16.262Z,74.63
2022-10-01T19:27:21.205Z,73.99
2022-10-01T19:29:12.702Z,74.47
2022-10-01T19:30:52.214Z,73.79
2022-10-01T19:32:34.171Z,74.14
2022-10-01T19:34:22.667Z,73.29
2022-10-01T19:36:01.194Z,72.44
2022-10-01T19:37:34.497Z,73.26
2022-10-01T19:39:24.063Z,72.97
2022-10-01T19:41:09.014Z,73.45
2022-10-01T19:42:50.441Z,73.63
2022-10-01T19:44:40.618Z,74.61
2022-10-01T19:46:21.601Z,75.25
2022-10-01T19:48:12.961Z,75.85
2022-10-01T19:49:49.420Z,76.01
2022-10-01T19:51:28.138Z,76.64
2022-10-01T19:53:03.752Z,75.96
2022-10-01T19:54:44.884Z,75.45
2022-10-01T19:56:24.712Z,75.20
2022-10-01T19:57:58.899Z,75.34
2022-10-01T19:59:32.483Z,75.56
2022-10-01T20:01:06.842Z,76.03
2022-10-01T20:02:59.009Z,76.30
2022-10-01T20:04:53.621Z,76.10
2022-10-01T20:06:34.634Z,76.52
2022-10-01T20:08:36.692Z,76.76
2022-10-01T20:11:03.809Z,77.05
2022-10-01T20:13:01.310Z,77.06
2022-10-01T20:15:09.973Z,76.97
2022-10-01T20:16:52.183Z,77.04
2022-10-01T20:19:11.780Z,77.49
2022-10-01T20:20:54.395Z,77.31
2022-10-01T20:22:44.168Z,77.41
2022-10-01T20:24:42.835Z,77.87
2022-10-01T20:26:32.537Z,78.55
2022-10-01T20:28:29.056Z,78.51
2022-10-01T20:30:12.645Z,78.58
2022-10-01T20:31:50.148Z,78.80
2022-10-01T20:33:32.126Z,78.83
2022-10-01T20:35:19.633Z,78.35
2022-10-01T20:37:38.424Z,78.22
2022-10-01T20:39:19.028Z,78.00
2022-10-01T20:40:57.833Z,77.91
2022-10-01T20:42:39.062Z,78.11
2022-10-01T20:44:22.217Z,77.63
2022-10-01T20:45:56.487Z,77.72
2022-10-01T20:47:47.897Z,77.66
2022-10-01T20:49:31.687Z,77.32
2022-10-01T20:51:15.192Z,77.01
2022-10-01T20:52:53.200Z,76.89
2022-10-01T20:54:33.816Z,77.26
2022-10-01T20:56:19.333Z,77.16
2022-10-01T20:57:56.611Z,76.98
2022-10-01T20:59:52.284Z,76.83
2022-10-01T21:01:28.254Z,77.38
2022-10-01T21:03:20.243Z,79.06
2022-10-01T21:05:06.247Z,79.16
2022-10-01T21:06:46.339Z,79.75
2022-10-01T21:08:51.707Z,80.46
2022-10-01T21:10:43.679Z,80.23
2022-10-01T21:12:36.863Z,80.37
2022-10-01T21:14:25.986Z,80.62
2022-10-01T21:16:11.486Z,80.96
2022-10-01T21:18:16.620Z,81.77
2022-10-01T21:20:05.352Z,81.02
2022-10-01T21:22:04.317Z,80.43
2022-10-01T21:24:06.526Z,80.24
2022-10-01T21:26:25.800Z,80.00
2022-10-01T21:28:34.739Z,78.77
2022-10-01T21:30:10.731Z,79.51
2022-10-01T21:32:13.031Z,77.14
2022-10-01T21:33:54.512Z,76.52
2022-10-01T21:35:44.817Z,76.95
2022-10-01T21:37:28.472Z,76.55
2022-10-01T21:39:05.271Z,76.92
2022-10-01T21:40:51.499Z,75.46
2022-10-01T21:42:50.376Z,75.05
2022-10-01T21:44:46.904Z,75.25
2022-10-01T21:46:35.079Z,74.83